createdAt,value
2019-03-18T00:32:57.600Z,89.90
2019-03-18T00:35:48.566Z,89.90
2019-03-18T00:38:19.250Z,90.00
2019-03-18T00:40:50.382Z,90.00
2019-03-18T00:43:20.925Z,89.80
2019-03-18T00:45:51.639Z,89.30
2019-03-18T00:48:22.360Z,89.40
2019-03-18T00:50:53.257Z,89.40
2019-03-18T00:53:23.918Z,89.50
2019-03-18T00:58:44.892Z,89.50
2019-03-18T01:01:16.433Z,89.60
2019-03-18T01:03:47.076Z,89.00
2019-03-18T01:06:18.174Z,88.50
2019-03-18T01:08:48.839Z,88.40
2019-03-18T01:11:19.469Z,88.20
2019-03-18T01:13:50.945Z,88.10
2019-03-18T01:16:21.942Z,88.10
2019-03-18T01:18:55.416Z,88.00
2019-03-18T01:21:26.112Z,88.10
2019-03-18T01:26:47.069Z,87.00
2019-03-18T01:29:17.743Z,86.70
2019-03-18T01:31:48.374Z,86.90
2019-03-18T01:34:19.154Z,86.60
2019-03-18T01:36:49.831Z,86.80
2019-03-18T01:39:20.458Z,86.80
2019-03-18T01:41:51.436Z,85.30
2019-03-18T01:44:22.132Z,83.70
2019-03-18T01:46:52.954Z,83.20
2019-03-18T01:49:23.821Z,83.30
2019-03-18T01:51:54.519Z,82.50
2019-03-18T01:54:25.229Z,82.50
2019-03-18T01:56:56.109Z,82.60
2019-03-18T01:59:26.796Z,82.40
2019-03-18T02:01:57.523Z,81.90
2019-03-18T02:04:28.423Z,81.80
2019-03-18T02:06:59.279Z,81.80
2019-03-18T02:09:29.863Z,80.80
2019-03-18T02:12:01.983Z,80.00
2019-03-18T02:14:32.651Z,80.30
2019-03-18T02:17:03.281Z,79.80
2019-03-18T02:19:44.469Z,78.90
2019-03-18T02:22:15.265Z,78.40
2019-03-18T02:24:45.982Z,79.30
2019-03-18T02:27:28.887Z,79.00
2019-03-18T02:29:59.675Z,78.50
2019-03-18T02:32:30.196Z,78.30
2019-03-18T02:35:00.890Z,77.70
2019-03-18T02:37:31.755Z,78.20
2019-03-18T02:40:02.426Z,77.10
2019-03-18T02:42:33.135Z,76.80
2019-03-18T02:45:03.953Z,77.20
2019-03-18T02:47:34.392Z,77.30
2019-03-18T02:50:05.650Z,76.80
2019-03-18T02:52:36.531Z,75.90
2019-03-18T02:55:07.945Z,74.70
2019-03-18T02:57:38.891Z,75.00
2019-03-18T03:00:12.602Z,75.50
2019-03-18T03:02:43.370Z,74.80
2019-03-18T03:05:16.049Z,75.10
2019-03-18T03:08:07.196Z,74.20
2019-03-18T03:10:38.003Z,73.90
2019-03-18T03:13:55.588Z,75.20
2019-03-18T03:16:27.429Z,75.70
2019-03-18T03:18:57.831Z,76.00
2019-03-18T03:21:29.237Z,74.70
2019-03-18T03:24:00.581Z,74.50
2019-03-18T03:26:31.582Z,73.20
2019-03-18T03:29:02.418Z,73.20
2019-03-18T03:31:32.809Z,73.80
2019-03-18T03:34:03.602Z,73.40
2019-03-18T03:36:40.466Z,72.40
2019-03-18T03:39:10.775Z,72.70
2019-03-18T03:41:41.747Z,72.10
2019-03-18T03:44:12.808Z,71.80
2019-03-18T03:46:44.149Z,71.90
2019-03-18T03:49:15.153Z,72.20
2019-03-18T03:51:45.794Z,71.10
2019-03-18T03:54:20.153Z,71.30
2019-03-18T03:56:51.135Z,70.70
2019-03-18T03:59:21.747Z,71.10
2019-03-18T04:01:52.274Z,70.80
2019-03-18T04:04:25.717Z,70.50
2019-03-18T04:06:56.375Z,70.40
2019-03-18T04:09:27.274Z,70.40
2019-03-18T04:11:57.942Z,70.00
2019-03-18T04:14:28.669Z,69.90
2019-03-18T04:17:02.993Z,70.10
2019-03-18T04:19:31.728Z,67.60
2019-03-18T04:22:02.918Z,67.10
2019-03-18T04:24:33.690Z,67.60
2019-03-18T04:27:04.418Z,68.30
2019-03-18T04:29:35.315Z,67.50
2019-03-18T04:32:05.993Z,66.60
2019-03-18T04:34:36.710Z,66.40
2019-03-18T04:37:07.591Z,65.00
2019-03-18T04:39:37.986Z,66.50
2019-03-18T04:42:08.381Z,66.10
2019-03-18T04:44:39.177Z,66.30
2019-03-18T04:47:14.560Z,65.10
2019-03-18T04:49:42.542Z,65.50
2019-03-18T04:52:12.930Z,66.00
2019-03-18T04:54:43.536Z,66.50
2019-03-18T04:57:14.423Z,65.10
2019-03-18T04:59:45.055Z,63.70
2019-03-18T05:02:17.059Z,63.90
2019-03-18T05:04:47.990Z,64.30
2019-03-18T05:07:18.752Z,64.90
2019-03-18T05:09:49.434Z,64.60
2019-03-18T05:12:20.362Z,64.40
2019-03-18T05:14:51.031Z,64.50
2019-03-18T05:17:26.647Z,65.20
2019-03-18T05:19:53.957Z,63.90
2019-03-18T05:22:25.048Z,63.50
2019-03-18T05:24:56.343Z,63.70
2019-03-18T05:27:28.047Z,63.70
2019-03-18T05:29:58.736Z,64.00
2019-03-18T05:35:19.566Z,64.50
2019-03-18T05:37:50.285Z,64.00
2019-03-18T05:40:21.007Z,64.20
2019-03-18T05:42:51.915Z,63.50
2019-03-18T05:45:22.567Z,63.90
2019-03-18T05:47:53.308Z,63.80
2019-03-18T05:50:24.701Z,63.50
2019-03-18T05:52:56.854Z,62.90
2019-03-18T05:55:27.582Z,62.30
2019-03-18T05:57:58.518Z,62.00
2019-03-18T06:00:29.339Z,62.60
2019-03-18T06:03:00.068Z,62.40
2019-03-18T06:05:30.911Z,61.80
2019-03-18T06:08:01.526Z,61.90
2019-03-18T06:10:32.421Z,61.80
2019-03-18T06:13:03.250Z,60.50
2019-03-18T06:15:34.025Z,60.80
2019-03-18T06:18:04.907Z,62.30
2019-03-18T06:20:35.563Z,61.80
2019-03-18T06:23:06.635Z,61.90
2019-03-18T06:25:37.695Z,62.30
2019-03-18T06:28:09.003Z,62.60
2019-03-18T06:30:41.351Z,61.90
2019-03-18T06:33:24.330Z,61.30
2019-03-18T06:35:55.153Z,61.20
2019-03-18T06:38:25.815Z,61.60
2019-03-18T06:40:57.315Z,60.70
2019-03-18T06:43:28.246Z,61.00
2019-03-18T06:45:59.010Z,60.00
2019-03-18T06:48:29.730Z,59.90
2019-03-18T06:51:01.070Z,60.40
2019-03-18T06:53:31.642Z,60.90
2019-03-18T06:56:02.314Z,60.50
2019-03-18T06:58:33.311Z,60.00
2019-03-18T07:01:03.971Z,59.80
2019-03-18T07:03:34.694Z,59.40
2019-03-18T07:06:05.604Z,59.70
2019-03-18T07:08:36.261Z,59.30
2019-03-18T07:11:07.142Z,59.80
2019-03-18T07:13:38.590Z,58.90
2019-03-18T07:16:09.246Z,58.80
2019-03-18T07:18:40.223Z,58.90
2019-03-18T07:21:11.037Z,59.00
2019-03-18T07:23:43.616Z,58.30
2019-03-18T07:26:14.416Z,58.50
2019-03-18T07:28:45.087Z,59.20
2019-03-18T07:31:15.837Z,59.30
2019-03-18T07:33:47.874Z,59.00
2019-03-18T07:36:18.575Z,58.80
2019-03-18T07:38:49.286Z,59.90
2019-03-18T07:41:20.774Z,59.40
2019-03-18T07:43:51.468Z,59.40
2019-03-18T07:46:22.363Z,59.50
2019-03-18T07:48:53.019Z,60.10
2019-03-18T07:51:23.756Z,59.80
2019-03-18T07:53:55.017Z,59.10
2019-03-18T07:56:25.742Z,59.10
2019-03-18T07:58:56.398Z,58.40
2019-03-18T08:01:27.050Z,59.00
2019-03-18T08:03:57.927Z,58.20
2019-03-18T08:06:28.708Z,58.70
2019-03-18T08:08:59.607Z,59.30
2019-03-18T08:11:30.264Z,59.10
2019-03-18T08:14:01.138Z,59.20
2019-03-18T08:16:31.832Z,58.70
2019-03-18T08:19:04.320Z,59.00
2019-03-18T08:21:34.982Z,58.90
2019-03-18T08:24:07.071Z,58.90
2019-03-18T08:26:37.727Z,58.80
2019-03-18T08:29:08.354Z,59.10
2019-03-18T08:31:39.139Z,59.00
2019-03-18T08:34:09.838Z,58.80
2019-03-18T08:36:40.545Z,58.90
2019-03-18T08:39:11.524Z,58.90
2019-03-18T08:41:42.326Z,59.00
2019-03-18T08:44:13.049Z,58.50
2019-03-18T08:46:43.931Z,58.50
2019-03-18T08:49:14.594Z,58.60
2019-03-18T08:51:45.326Z,58.40
2019-03-18T08:54:18.031Z,58.80
2019-03-18T08:56:48.626Z,59.00
2019-03-18T08:59:23.899Z,59.20
2019-03-18T09:01:56.126Z,59.40
2019-03-18T09:04:26.791Z,60.40
2019-03-18T09:06:57.515Z,60.80
2019-03-18T09:09:28.418Z,58.60
2019-03-18T09:11:59.078Z,60.20
2019-03-18T09:14:29.807Z,61.00
2019-03-18T09:17:00.703Z,60.10
2019-03-18T09:19:32.624Z,60.00
2019-03-18T09:22:03.379Z,61.40
2019-03-18T09:24:34.688Z,62.50
2019-03-18T09:27:05.495Z,63.40
2019-03-18T09:29:36.147Z,64.50
2019-03-18T09:32:07.127Z,63.50
2019-03-18T09:34:37.840Z,64.00
2019-03-18T09:37:08.573Z,62.40
2019-03-18T09:39:39.459Z,62.80
2019-03-18T09:42:10.119Z,61.40
2019-03-18T09:44:40.864Z,61.40
2019-03-18T09:47:11.743Z,61.70
2019-03-18T09:49:42.412Z,62.20
2019-03-18T09:52:13.036Z,63.20
2019-03-18T09:54:43.799Z,61.20
2019-03-18T09:57:25.470Z,60.90
2019-03-18T09:59:47.188Z,61.70
2019-03-18T10:02:17.855Z,62.40
2019-03-18T10:04:48.556Z,63.80
2019-03-18T10:07:19.380Z,65.60
2019-03-18T10:09:49.766Z,64.60
2019-03-18T10:12:20.327Z,65.40
2019-03-18T10:14:50.958Z,65.90
2019-03-18T10:17:21.715Z,66.30
2019-03-18T10:19:53.557Z,66.60
2019-03-18T10:22:24.580Z,67.40
2019-03-18T10:24:55.369Z,68.80
2019-03-18T10:27:26.292Z,69.80
2019-03-18T10:29:56.991Z,70.60
2019-03-18T10:32:27.687Z,71.60
2019-03-18T10:34:58.584Z,73.30
2019-03-18T10:37:29.238Z,72.50
2019-03-18T10:39:59.691Z,71.80
2019-03-18T10:42:30.564Z,72.90
2019-03-18T10:45:01.303Z,73.20
2019-03-18T10:47:32.087Z,73.70
2019-03-18T10:50:02.935Z,72.90
2019-03-18T10:52:34.164Z,72.40
2019-03-18T10:55:04.803Z,73.00
2019-03-18T10:57:35.467Z,73.00
2019-03-18T11:00:08.229Z,74.00
2019-03-18T11:02:39.298Z,73.70
2019-03-18T11:05:10.375Z,73.40
2019-03-18T11:07:41.172Z,73.90
2019-03-18T11:10:15.687Z,75.00
2019-03-18T11:12:46.228Z,75.10
2019-03-18T11:15:18.124Z,73.70
2019-03-18T11:17:48.681Z,74.00
2019-03-18T11:20:19.615Z,74.30
2019-03-18T11:22:50.210Z,74.50
2019-03-18T11:25:22.387Z,74.20
2019-03-18T11:27:52.789Z,74.00
2019-03-18T11:30:23.455Z,73.90
2019-03-18T11:32:54.029Z,73.70
2019-03-18T11:35:24.419Z,74.00
2019-03-18T11:37:54.934Z,74.50
2019-03-18T11:40:25.599Z,74.70
2019-03-18T11:42:57.056Z,75.00
2019-03-18T11:45:27.451Z,74.40
2019-03-18T11:47:58.119Z,74.40
2019-03-18T11:50:28.528Z,74.50
2019-03-18T11:52:58.929Z,74.90
2019-03-18T11:55:29.678Z,75.20
2019-03-18T11:58:00.264Z,75.30
2019-03-18T12:00:30.651Z,75.50
2019-03-18T12:03:01.320Z,75.90
2019-03-18T12:05:32.043Z,76.20
2019-03-18T12:08:02.561Z,75.30
2019-03-18T12:10:33.111Z,76.00
2019-03-18T12:13:03.495Z,75.10
2019-03-18T12:15:36.408Z,75.20
2019-03-18T12:18:06.033Z,75.40
2019-03-18T12:20:36.420Z,75.90
2019-03-18T12:23:11.779Z,76.40
2019-03-18T12:25:45.024Z,77.00
2019-03-18T12:28:15.685Z,77.30
2019-03-18T12:30:46.110Z,78.10
2019-03-18T12:33:16.543Z,78.40
2019-03-18T12:35:47.471Z,78.50
2019-03-18T12:38:18.255Z,78.70
2019-03-18T12:40:48.660Z,78.80
2019-03-18T12:43:19.254Z,78.20
2019-03-18T12:45:49.675Z,78.00
2019-03-18T12:48:20.109Z,78.00
2019-03-18T12:50:56.183Z,78.20
2019-03-18T12:53:23.098Z,78.60
2019-03-18T12:55:54.489Z,78.00
2019-03-18T12:58:26.404Z,77.50
2019-03-18T13:00:56.795Z,78.00
2019-03-18T13:03:27.365Z,77.00
2019-03-18T13:05:57.771Z,76.70
2019-03-18T13:08:37.044Z,77.30
2019-03-18T13:11:07.610Z,77.60
2019-03-18T13:16:30.592Z,78.10
2019-03-18T13:19:00.995Z,78.20
2019-03-18T13:21:32.771Z,78.30
2019-03-18T13:24:03.364Z,78.50
2019-03-18T13:26:58.514Z,78.00
2019-03-18T13:29:27.362Z,77.40
2019-03-18T13:31:57.774Z,77.60
2019-03-18T13:34:28.275Z,77.70
2019-03-18T13:36:58.862Z,77.40
2019-03-18T13:39:29.265Z,77.50
2019-03-18T13:41:59.690Z,78.70
2019-03-18T13:44:30.273Z,77.70
2019-03-18T13:47:01.986Z,77.80
2019-03-18T13:49:35.022Z,77.60
2019-03-18T13:52:08.125Z,77.20
2019-03-18T13:54:38.633Z,77.90
2019-03-18T13:57:09.034Z,77.40
2019-03-18T13:59:39.620Z,77.90
2019-03-18T14:02:10.044Z,77.80
2019-03-18T14:04:40.477Z,78.20
2019-03-18T14:07:11.183Z,78.40
2019-03-18T14:09:43.753Z,78.40
2019-03-18T14:12:17.933Z,78.20
2019-03-18T14:17:39.310Z,77.80
2019-03-18T14:20:12.267Z,77.70
2019-03-18T14:22:44.802Z,77.90
2019-03-18T14:25:15.732Z,77.90
2019-03-18T14:27:46.485Z,77.90
2019-03-18T14:30:19.777Z,77.80
2019-03-18T14:32:50.247Z,77.90
2019-03-18T14:35:22.032Z,78.20
2019-03-18T14:37:52.907Z,77.80
2019-03-18T14:40:24.313Z,78.00
2019-03-18T14:42:57.496Z,78.20
2019-03-18T14:45:28.148Z,78.50
2019-03-18T14:47:58.561Z,78.40
2019-03-18T14:50:28.999Z,78.20
2019-03-18T14:52:59.687Z,77.90
2019-03-18T14:55:30.196Z,78.00
2019-03-18T14:58:02.009Z,78.10
2019-03-18T15:00:33.386Z,78.20
2019-03-18T15:03:03.783Z,78.30
2019-03-18T15:05:36.908Z,78.40
2019-03-18T15:08:06.527Z,78.50
2019-03-18T15:10:37.435Z,78.90
2019-03-18T15:13:07.830Z,79.20
2019-03-18T15:15:38.401Z,79.20
2019-03-18T15:18:08.828Z,79.50
2019-03-18T15:20:39.237Z,79.70
2019-03-18T15:23:09.843Z,79.80
2019-03-18T15:25:41.372Z,79.80
2019-03-18T15:28:12.480Z,79.80
2019-03-18T15:30:43.060Z,79.70
2019-03-18T15:33:13.488Z,79.90
2019-03-18T15:35:44.115Z,80.00
2019-03-18T15:38:20.775Z,80.10
2019-03-18T15:40:54.625Z,79.90
2019-03-18T15:43:27.705Z,79.80
